sensor_id;sensor_type;location;lat;lon;timestamp;P1;durP1;ratioP1;P2;durP2;ratioP2
74810;SDS011;63340;48.404;-4.506;2022-10-13T00:01:18;3.00;;;2.00;;
74810;SDS011;63340;48.404;-4.506;2022-10-13T00:03:46;3.50;;;2.00;;
74810;SDS011;63340;48.404;-4.506;2022-10-13T00:06:13;1.50;;;1.50;;
74810;SDS011;63340;48.404;-4.506;2022-10-13T00:08:40;2.50;;;2.50;;
74810;SDS011;63340;48.404;-4.506;2022-10-13T00:11:14;2.75;;;2.75;;
74810;SDS011;63340;48.404;-4.506;2022-10-13T00:13:41;1.00;;;0.50;;
74810;SDS011;63340;48.404;-4.506;2022-10-13T00:16:08;2.00;;;2.00;;
74810;SDS011;63340;48.404;-4.506;2022-10-13T00:18:34;1.75;;;1.50;;
74810;SDS011;63340;48.404;-4.506;2022-10-13T00:21:00;2.25;;;2.25;;
74810;SDS011;63340;48.404;-4.506;2022-10-13T00:23:30;2.50;;;2.00;;
74810;SDS011;63340;48.404;-4.506;2022-10-13T00:25:57;3.25;;;1.25;;
74810;SDS011;63340;48.404;-4.506;2022-10-13T00:28:23;1.25;;;1.25;;
74810;SDS011;63340;48.404;-4.506;2022-10-13T00:30:48;3.75;;;2.25;;
74810;SDS011;63340;48.404;-4.506;2022-10-13T00:33:14;4.75;;;2.50;;
74810;SDS011;63340;48.404;-4.506;2022-10-13T00:35:43;1.50;;;1.25;;
74810;SDS011;63340;48.404;-4.506;2022-10-13T00:38:10;2.00;;;1.00;;
74810;SDS011;63340;48.404;-4.506;2022-10-13T00:40:43;3.00;;;2.00;;
74810;SDS011;63340;48.404;-4.506;2022-10-13T00:43:15;2.00;;;2.00;;
74810;SDS011;63340;48.404;-4.506;2022-10-13T00:45:46;2.25;;;2.00;;
74810;SDS011;63340;48.404;-4.506;2022-10-13T00:48:14;2.00;;;2.00;;
74810;SDS011;63340;48.404;-4.506;2022-10-13T00:50:43;2.25;;;1.00;;
74810;SDS011;63340;48.404;-4.506;2022-10-13T00:53:09;2.50;;;2.00;;
74810;SDS011;63340;48.404;-4.506;2022-10-13T00:55:36;2.00;;;1.75;;
74810;SDS011;63340;48.404;-4.506;2022-10-13T00:58:04;2.75;;;2.00;;
74810;SDS011;63340;48.404;-4.506;2022-10-13T01:00:31;1.00;;;1.00;;
74810;SDS011;63340;48.404;-4.506;2022-10-13T01:02:59;1.75;;;1.00;;
74810;SDS011;63340;48.404;-4.506;2022-10-13T01:05:25;1.00;;;1.00;;
74810;SDS011;63340;48.404;-4.506;2022-10-13T01:07:50;2.00;;;2.00;;
74810;SDS011;63340;48.404;-4.506;2022-10-13T01:10:16;2.00;;;2.00;;
74810;SDS011;63340;48.404;-4.506;2022-10-13T01:12:56;0.75;;;0.75;;
74810;SDS011;63340;48.404;-4.506;2022-10-13T01:15:41;2.00;;;2.00;;
74810;SDS011;63340;48.404;-4.506;2022-10-13T01:18:25;2.00;;;2.00;;
74810;SDS011;63340;48.404;-4.506;2022-10-13T01:21:22;1.50;;;1.50;;
74810;SDS011;63340;48.404;-4.506;2022-10-13T01:27:16;1.00;;;1.00;;
74810;SDS011;63340;48.404;-4.506;2022-10-13T01:35:11;2.25;;;1.25;;
74810;SDS011;63340;48.404;-4.506;2022-10-13T01:37:48;1.50;;;1.50;;
74810;SDS011;63340;48.404;-4.506;2022-10-13T01:40:19;2.25;;;1.00;;
74810;SDS011;63340;48.404;-4.506;2022-10-13T01:42:53;1.75;;;1.75;;
74810;SDS011;63340;48.404;-4.506;2022-10-13T01:45:25;0.25;;;0.25;;
74810;SDS011;63340;48.404;-4.506;2022-10-13T01:48:02;2.00;;;2.00;;
74810;SDS011;63340;48.404;-4.506;2022-10-13T01:50:30;2.00;;;0.25;;
74810;SDS011;63340;48.404;-4.506;2022-10-13T01:52:58;1.00;;;1.00;;
74810;SDS011;63340;48.404;-4.506;2022-10-13T01:55:25;2.00;;;2.00;;
74810;SDS011;63340;48.404;-4.506;2022-10-13T01:57:52;1.00;;;1.00;;
74810;SDS011;63340;48.404;-4.506;2022-10-13T02:00:18;2.00;;;2.00;;
74810;SDS011;63340;48.404;-4.506;2022-10-13T02:08:30;0.25;;;0.25;;
74810;SDS011;63340;48.404;-4.506;2022-10-13T02:11:19;1.00;;;1.00;;
74810;SDS011;63340;48.404;-4.506;2022-10-13T02:13:49;2.75;;;1.75;;
74810;SDS011;63340;48.404;-4.506;2022-10-13T02:16:27;1.00;;;1.00;;
74810;SDS011;63340;48.404;-4.506;2022-10-13T02:18:57;1.25;;;1.25;;
74810;SDS011;63340;48.404;-4.506;2022-10-13T02:21:24;2.75;;;1.00;;
74810;SDS011;63340;48.404;-4.506;2022-10-13T02:23:51;1.00;;;1.00;;
74810;SDS011;63340;48.404;-4.506;2022-10-13T02:26:17;2.00;;;0.00;;
74810;SDS011;63340;48.404;-4.506;2022-10-13T02:28:43;1.25;;;1.25;;
74810;SDS011;63340;48.404;-4.506;2022-10-13T02:31:08;0.00;;;0.00;;
74810;SDS011;63340;48.404;-4.506;2022-10-13T02:33:34;1.00;;;1.00;;
74810;SDS011;63340;48.404;-4.506;2022-10-13T02:35:59;1.00;;;1.00;;
74810;SDS011;63340;48.404;-4.506;2022-10-13T02:38:24;0.00;;;0.00;;
74810;SDS011;63340;48.404;-4.506;2022-10-13T02:40:50;1.00;;;1.00;;
74810;SDS011;63340;48.404;-4.506;2022-10-13T02:43:15;1.00;;;0.50;;
74810;SDS011;63340;48.404;-4.506;2022-10-13T02:45:41;1.50;;;1.00;;
74810;SDS011;63340;48.404;-4.506;2022-10-13T02:48:06;0.25;;;0.25;;
74810;SDS011;63340;48.404;-4.506;2022-10-13T02:50:32;1.00;;;1.00;;
74810;SDS011;63340;48.404;-4.506;2022-10-13T02:52:57;1.00;;;1.00;;
74810;SDS011;63340;48.404;-4.506;2022-10-13T02:55:23;1.00;;;0.00;;
74810;SDS011;63340;48.404;-4.506;2022-10-13T02:57:48;0.00;;;0.00;;
74810;SDS011;63340;48.404;-4.506;2022-10-13T03:00:14;0.00;;;0.00;;
74810;SDS011;63340;48.404;-4.506;2022-10-13T03:02:40;0.00;;;0.00;;
74810;SDS011;63340;48.404;-4.506;2022-10-13T03:05:06;0.00;;;0.00;;
74810;SDS011;63340;48.404;-4.506;2022-10-13T03:07:32;0.00;;;0.00;;
74810;SDS011;63340;48.404;-4.506;2022-10-13T03:09:57;0.00;;;0.00;;
74810;SDS011;63340;48.404;-4.506;2022-10-13T03:12:23;0.00;;;0.00;;
74810;SDS011;63340;48.404;-4.506;2022-10-13T03:14:48;1.25;;;0.00;;
74810;SDS011;63340;48.404;-4.506;2022-10-13T03:17:14;0.00;;;0.00;;
74810;SDS011;63340;48.404;-4.506;2022-10-13T03:19:39;0.00;;;0.00;;
74810;SDS011;63340;48.404;-4.506;2022-10-13T03:22:05;0.00;;;0.00;;
74810;SDS011;63340;48.404;-4.506;2022-10-13T03:24:30;0.00;;;0.00;;
74810;SDS011;63340;48.404;-4.506;2022-10-13T03:26:56;0.00;;;0.00;;
74810;SDS011;63340;48.404;-4.506;2022-10-13T03:29:21;0.25;;;0.00;;
74810;SDS011;63340;48.404;-4.506;2022-10-13T03:31:47;0.00;;;0.00;;
74810;SDS011;63340;48.404;-4.506;2022-10-13T03:34:14;0.00;;;0.00;;
74810;SDS011;63340;48.404;-4.506;2022-10-13T03:36:40;0.00;;;0.00;;
74810;SDS011;63340;48.404;-4.506;2022-10-13T03:39:06;0.00;;;0.00;;
74810;SDS011;63340;48.404;-4.506;2022-10-13T03:41:31;0.00;;;0.00;;
74810;SDS011;63340;48.404;-4.506;2022-10-13T03:43:56;0.00;;;0.00;;
74810;SDS011;63340;48.404;-4.506;2022-10-13T03:46:22;0.50;;;0.00;;
74810;SDS011;63340;48.404;-4.506;2022-10-13T03:48:51;0.00;;;0.00;;
74810;SDS011;63340;48.404;-4.506;2022-10-13T03:51:17;0.00;;;0.00;;
74810;SDS011;63340;48.404;-4.506;2022-10-13T03:53:45;0.00;;;0.00;;
74810;SDS011;63340;48.404;-4.506;2022-10-13T03:56:11;0.00;;;0.00;;
74810;SDS011;63340;48.404;-4.506;2022-10-13T03:58:39;0.00;;;0.00;;
74810;SDS011;63340;48.404;-4.506;2022-10-13T04:01:05;2.00;;;0.00;;
74810;SDS011;63340;48.404;-4.506;2022-10-13T04:03:31;2.75;;;1.00;;
74810;SDS011;63340;48.404;-4.506;2022-10-13T04:06:00;0.75;;;0.75;;
74810;SDS011;63340;48.404;-4.506;2022-10-13T04:08:27;0.50;;;0.50;;
74810;SDS011;63340;48.404;-4.506;2022-10-13T04:10:57;2.00;;;1.00;;
74810;SDS011;63340;48.404;-4.506;2022-10-13T04:13:27;2.00;;;2.00;;
74810;SDS011;63340;48.404;-4.506;2022-10-13T04:15:52;2.00;;;2.00;;
74810;SDS011;63340;48.404;-4.506;2022-10-13T04:18:18;1.00;;;1.00;;
74810;SDS011;63340;48.404;-4.506;2022-10-13T04:20:43;1.00;;;1.00;;
74810;SDS011;63340;48.404;-4.506;2022-10-13T04:23:09;1.25;;;1.00;;
74810;SDS011;63340;48.404;-4.506;2022-10-13T04:25:35;1.25;;;1.25;;
74810;SDS011;63340;48.404;-4.506;2022-10-13T04:28:01;3.75;;;3.75;;
74810;SDS011;63340;48.404;-4.506;2022-10-13T04:30:28;2.00;;;1.25;;
74810;SDS011;63340;48.404;-4.506;2022-10-13T04:32:53;3.25;;;1.00;;
74810;SDS011;63340;48.404;-4.506;2022-10-13T04:35:19;2.00;;;2.00;;
74810;SDS011;63340;48.404;-4.506;2022-10-13T04:37:50;2.00;;;2.00;;
74810;SDS011;63340;48.404;-4.506;2022-10-13T04:40:16;1.50;;;1.00;;
74810;SDS011;63340;48.404;-4.506;2022-10-13T04:42:42;0.50;;;0.50;;
74810;SDS011;63340;48.404;-4.506;2022-10-13T04:45:07;1.50;;;1.50;;
74810;SDS011;63340;48.404;-4.506;2022-10-13T04:47:33;1.00;;;1.00;;
74810;SDS011;63340;48.404;-4.506;2022-10-13T04:50:00;2.00;;;1.25;;
74810;SDS011;63340;48.404;-4.506;2022-10-13T04:52:26;2.00;;;1.00;;
74810;SDS011;63340;48.404;-4.506;2022-10-13T04:54:51;2.75;;;1.25;;
74810;SDS011;63340;48.404;-4.506;2022-10-13T04:57:17;2.00;;;2.00;;
74810;SDS011;63340;48.404;-4.506;2022-10-13T04:59:50;2.50;;;1.00;;
74810;SDS011;63340;48.404;-4.506;2022-10-13T05:02:16;2.75;;;1.75;;
74810;SDS011;63340;48.404;-4.506;2022-10-13T05:04:42;2.75;;;2.50;;
74810;SDS011;63340;48.404;-4.506;2022-10-13T05:07:08;2.00;;;1.50;;
74810;SDS011;63340;48.404;-4.506;2022-10-13T05:09:33;1.00;;;1.00;;
74810;SDS011;63340;48.404;-4.506;2022-10-13T05:12:01;2.25;;;1.00;;
74810;SDS011;63340;48.404;-4.506;2022-10-13T05:14:27;1.75;;;1.00;;
74810;SDS011;63340;48.404;-4.506;2022-10-13T05:16:52;0.50;;;0.50;;
74810;SDS011;63340;48.404;-4.506;2022-10-13T05:19:18;1.50;;;1.50;;
74810;SDS011;63340;48.404;-4.506;2022-10-13T05:21:44;1.25;;;1.00;;
74810;SDS011;63340;48.404;-4.506;2022-10-13T05:24:10;3.00;;;3.00;;
74810;SDS011;63340;48.404;-4.506;2022-10-13T05:26:38;2.00;;;1.00;;
74810;SDS011;63340;48.404;-4.506;2022-10-13T05:29:04;2.00;;;2.00;;
74810;SDS011;63340;48.404;-4.506;2022-10-13T05:31:30;2.25;;;2.00;;
74810;SDS011;63340;48.404;-4.506;2022-10-13T05:33:56;2.00;;;2.00;;
74810;SDS011;63340;48.404;-4.506;2022-10-13T05:38:55;2.75;;;2.75;;
74810;SDS011;63340;48.404;-4.506;2022-10-13T05:41:22;2.00;;;2.00;;
74810;SDS011;63340;48.404;-4.506;2022-10-13T05:43:50;2.00;;;2.00;;
74810;SDS011;63340;48.404;-4.506;2022-10-13T05:46:18;1.00;;;1.00;;
74810;SDS011;63340;48.404;-4.506;2022-10-13T05:48:43;2.00;;;1.00;;
74810;SDS011;63340;48.404;-4.506;2022-10-13T05:51:10;1.75;;;1.75;;
74810;SDS011;63340;48.404;-4.506;2022-10-13T05:53:41;2.00;;;1.00;;
74810;SDS011;63340;48.404;-4.506;2022-10-13T05:56:13;2.00;;;2.00;;
74810;SDS011;63340;48.404;-4.506;2022-10-13T05:58:43;3.25;;;3.00;;
74810;SDS011;63340;48.404;-4.506;2022-10-13T06:01:12;2.75;;;2.00;;
74810;SDS011;63340;48.404;-4.506;2022-10-13T06:03:42;2.00;;;2.00;;
74810;SDS011;63340;48.404;-4.506;2022-10-13T06:06:10;3.00;;;2.00;;
74810;SDS011;63340;48.404;-4.506;2022-10-13T06:08:36;1.75;;;1.75;;
74810;SDS011;63340;48.404;-4.506;2022-10-13T06:11:02;1.00;;;1.00;;
74810;SDS011;63340;48.404;-4.506;2022-10-13T06:13:29;2.00;;;1.00;;
74810;SDS011;63340;48.404;-4.506;2022-10-13T06:15:54;0.75;;;0.75;;
74810;SDS011;63340;48.404;-4.506;2022-10-13T06:18:20;2.00;;;1.00;;
74810;SDS011;63340;48.404;-4.506;2022-10-13T06:20:45;0.00;;;0.00;;
74810;SDS011;63340;48.404;-4.506;2022-10-13T06:23:11;0.50;;;0.50;;
74810;SDS011;63340;48.404;-4.506;2022-10-13T06:25:36;0.75;;;0.25;;
74810;SDS011;63340;48.404;-4.506;2022-10-13T06:28:02;0.75;;;0.75;;
74810;SDS011;63340;48.404;-4.506;2022-10-13T06:30:27;0.00;;;0.00;;
74810;SDS011;63340;48.404;-4.506;2022-10-13T06:32:53;2.00;;;2.00;;
74810;SDS011;63340;48.404;-4.506;2022-10-13T06:35:20;0.00;;;0.00;;
74810;SDS011;63340;48.404;-4.506;2022-10-13T06:37:47;1.00;;;1.00;;
74810;SDS011;63340;48.404;-4.506;2022-10-13T06:40:13;0.00;;;0.00;;
74810;SDS011;63340;48.404;-4.506;2022-10-13T06:42:39;0.00;;;0.00;;
74810;SDS011;63340;48.404;-4.506;2022-10-13T06:45:05;1.00;;;0.00;;
74810;SDS011;63340;48.404;-4.506;2022-10-13T06:47:30;0.00;;;0.00;;
74810;SDS011;63340;48.404;-4.506;2022-10-13T06:49:56;0.00;;;0.00;;
74810;SDS011;63340;48.404;-4.506;2022-10-13T06:52:21;0.00;;;0.00;;
74810;SDS011;63340;48.404;-4.506;2022-10-13T06:54:47;0.00;;;0.00;;
74810;SDS011;63340;48.404;-4.506;2022-10-13T06:57:12;0.00;;;0.00;;
74810;SDS011;63340;48.404;-4.506;2022-10-13T06:59:37;0.00;;;0.00;;
74810;SDS011;63340;48.404;-4.506;2022-10-13T07:02:03;0.00;;;0.00;;
74810;SDS011;63340;48.404;-4.506;2022-10-13T07:04:28;0.00;;;0.00;;
74810;SDS011;63340;48.404;-4.506;2022-10-13T07:06:54;0.00;;;0.00;;
74810;SDS011;63340;48.404;-4.506;2022-10-13T07:09:20;1.00;;;0.00;;
74810;SDS011;63340;48.404;-4.506;2022-10-13T07:11:45;0.00;;;0.00;;
74810;SDS011;63340;48.404;-4.506;2022-10-13T07:14:12;0.00;;;0.00;;
74810;SDS011;63340;48.404;-4.506;2022-10-13T07:16:38;0.25;;;0.00;;
74810;SDS011;63340;48.404;-4.506;2022-10-13T07:19:04;0.00;;;0.00;;
74810;SDS011;63340;48.404;-4.506;2022-10-13T07:21:29;0.00;;;0.00;;
74810;SDS011;63340;48.404;-4.506;2022-10-13T07:23:55;0.00;;;0.00;;
74810;SDS011;63340;48.404;-4.506;2022-10-13T07:26:20;0.00;;;0.00;;
74810;SDS011;63340;48.404;-4.506;2022-10-13T07:28:46;0.00;;;0.00;;
74810;SDS011;63340;48.404;-4.506;2022-10-13T07:31:16;0.00;;;0.00;;
74810;SDS011;63340;48.404;-4.506;2022-10-13T07:33:44;0.00;;;0.00;;
74810;SDS011;63340;48.404;-4.506;2022-10-13T07:36:12;0.00;;;0.00;;
74810;SDS011;63340;48.404;-4.506;2022-10-13T07:38:38;0.00;;;0.00;;
74810;SDS011;63340;48.404;-4.506;2022-10-13T07:41:05;0.75;;;0.00;;
74810;SDS011;63340;48.404;-4.506;2022-10-13T07:43:32;0.00;;;0.00;;
74810;SDS011;63340;48.404;-4.506;2022-10-13T07:45:58;0.00;;;0.00;;
74810;SDS011;63340;48.404;-4.506;2022-10-13T07:48:25;0.00;;;0.00;;
74810;SDS011;63340;48.404;-4.506;2022-10-13T07:50:51;0.00;;;0.00;;
74810;SDS011;63340;48.404;-4.506;2022-10-13T07:53:16;0.00;;;0.00;;
74810;SDS011;63340;48.404;-4.506;2022-10-13T07:55:42;0.00;;;0.00;;
74810;SDS011;63340;48.404;-4.506;2022-10-13T07:58:07;0.00;;;0.00;;
74810;SDS011;63340;48.404;-4.506;2022-10-13T08:00:33;0.00;;;0.00;;
74810;SDS011;63340;48.404;-4.506;2022-10-13T08:02:58;0.25;;;0.25;;
74810;SDS011;63340;48.404;-4.506;2022-10-13T08:05:24;0.00;;;0.00;;
74810;SDS011;63340;48.404;-4.506;2022-10-13T08:07:49;0.00;;;0.00;;
74810;SDS011;63340;48.404;-4.506;2022-10-13T08:10:15;0.00;;;0.00;;
74810;SDS011;63340;48.404;-4.506;2022-10-13T08:12:42;0.00;;;0.00;;
74810;SDS011;63340;48.404;-4.506;2022-10-13T08:15:08;0.00;;;0.00;;
74810;SDS011;63340;48.404;-4.506;2022-10-13T08:17:34;0.00;;;0.00;;
74810;SDS011;63340;48.404;-4.506;2022-10-13T08:19:59;0.00;;;0.00;;
74810;SDS011;63340;48.404;-4.506;2022-10-13T08:22:25;0.00;;;0.00;;
74810;SDS011;63340;48.404;-4.506;2022-10-13T08:24:51;0.00;;;0.00;;
74810;SDS011;63340;48.404;-4.506;2022-10-13T08:27:20;0.00;;;0.00;;
74810;SDS011;63340;48.404;-4.506;2022-10-13T08:29:47;0.00;;;0.00;;
74810;SDS011;63340;48.404;-4.506;2022-10-13T08:32:13;0.00;;;0.00;;
74810;SDS011;63340;48.404;-4.506;2022-10-13T08:34:38;0.00;;;0.00;;
74810;SDS011;63340;48.404;-4.506;2022-10-13T08:37:03;0.75;;;0.00;;
74810;SDS011;63340;48.404;-4.506;2022-10-13T08:39:29;0.25;;;0.00;;
74810;SDS011;63340;48.404;-4.506;2022-10-13T08:41:55;0.00;;;0.00;;
74810;SDS011;63340;48.404;-4.506;2022-10-13T08:44:34;0.00;;;0.00;;
74810;SDS011;63340;48.404;-4.506;2022-10-13T08:47:07;0.00;;;0.00;;
74810;SDS011;63340;48.404;-4.506;2022-10-13T08:49:36;0.00;;;0.00;;
74810;SDS011;63340;48.404;-4.506;2022-10-13T08:52:02;0.00;;;0.00;;
74810;SDS011;63340;48.404;-4.506;2022-10-13T08:54:29;0.00;;;0.00;;
74810;SDS011;63340;48.404;-4.506;2022-10-13T08:56:57;0.00;;;0.00;;
74810;SDS011;63340;48.404;-4.506;2022-10-13T08:59:23;0.00;;;0.00;;
74810;SDS011;63340;48.404;-4.506;2022-10-13T09:01:51;0.50;;;0.50;;
74810;SDS011;63340;48.404;-4.506;2022-10-13T09:04:29;1.75;;;1.75;;
74810;SDS011;63340;48.404;-4.506;2022-10-13T09:07:11;4.75;;;4.75;;
74810;SDS011;63340;48.404;-4.506;2022-10-13T09:09:41;5.25;;;5.25;;
74810;SDS011;63340;48.404;-4.506;2022-10-13T09:12:08;4.25;;;4.25;;
74810;SDS011;63340;48.404;-4.506;2022-10-13T09:14:36;2.50;;;2.00;;
74810;SDS011;63340;48.404;-4.506;2022-10-13T09:17:22;1.00;;;1.00;;
74810;SDS011;63340;48.404;-4.506;2022-10-13T09:22:44;0.00;;;0.00;;
74810;SDS011;63340;48.404;-4.506;2022-10-13T09:25:23;0.75;;;0.75;;
74810;SDS011;63340;48.404;-4.506;2022-10-13T09:27:50;0.00;;;0.00;;
74810;SDS011;63340;48.404;-4.506;2022-10-13T09:35:40;0.00;;;0.00;;
74810;SDS011;63340;48.404;-4.506;2022-10-13T09:38:18;0.00;;;0.00;;
74810;SDS011;63340;48.404;-4.506;2022-10-13T09:41:10;0.00;;;0.00;;
74810;SDS011;63340;48.404;-4.506;2022-10-13T09:48:57;0.00;;;0.00;;
74810;SDS011;63340;48.404;-4.506;2022-10-13T09:51:29;0.00;;;0.00;;
74810;SDS011;63340;48.404;-4.506;2022-10-13T09:53:56;0.00;;;0.00;;
74810;SDS011;63340;48.404;-4.506;2022-10-13T09:56:26;0.00;;;0.00;;
74810;SDS011;63340;48.404;-4.506;2022-10-13T10:01:44;1.00;;;1.00;;
74810;SDS011;63340;48.404;-4.506;2022-10-13T10:04:12;0.25;;;0.25;;
74810;SDS011;63340;48.404;-4.506;2022-10-13T10:06:46;2.00;;;2.00;;
74810;SDS011;63340;48.404;-4.506;2022-10-13T10:09:27;3.25;;;2.00;;
74810;SDS011;63340;48.404;-4.506;2022-10-13T10:12:00;2.00;;;2.00;;
74810;SDS011;63340;48.404;-4.506;2022-10-13T10:14:37;1.00;;;1.00;;
74810;SDS011;63340;48.404;-4.506;2022-10-13T10:17:12;1.00;;;1.00;;
74810;SDS011;63340;48.404;-4.506;2022-10-13T10:22:48;0.00;;;0.00;;
74810;SDS011;63340;48.404;-4.506;2022-10-13T10:28:16;0.00;;;0.00;;
74810;SDS011;63340;48.404;-4.506;2022-10-13T10:33:41;0.00;;;0.00;;
74810;SDS011;63340;48.404;-4.506;2022-10-13T10:36:14;0.00;;;0.00;;
74810;SDS011;63340;48.404;-4.506;2022-10-13T10:38:50;0.00;;;0.00;;
74810;SDS011;63340;48.404;-4.506;2022-10-13T10:44:03;0.00;;;0.00;;
74810;SDS011;63340;48.404;-4.506;2022-10-13T10:46:35;0.00;;;0.00;;
74810;SDS011;63340;48.404;-4.506;2022-10-13T10:52:02;0.00;;;0.00;;
74810;SDS011;63340;48.404;-4.506;2022-10-13T11:02:37;0.00;;;0.00;;
74810;SDS011;63340;48.404;-4.506;2022-10-13T11:05:06;0.00;;;0.00;;
74810;SDS011;63340;48.404;-4.506;2022-10-13T11:10:02;0.75;;;0.00;;
74810;SDS011;63340;48.404;-4.506;2022-10-13T11:12:44;1.00;;;1.00;;
74810;SDS011;63340;48.404;-4.506;2022-10-13T11:15:15;0.00;;;0.00;;
74810;SDS011;63340;48.404;-4.506;2022-10-13T11:17:48;0.00;;;0.00;;
74810;SDS011;63340;48.404;-4.506;2022-10-13T11:30:51;0.00;;;0.00;;
74810;SDS011;63340;48.404;-4.506;2022-10-13T11:50:17;0.00;;;0.00;;
74810;SDS011;63340;48.404;-4.506;2022-10-13T11:53:20;0.00;;;0.00;;
74810;SDS011;63340;48.404;-4.506;2022-10-13T11:58:24;0.00;;;0.00;;
74810;SDS011;63340;48.404;-4.506;2022-10-13T12:01:05;2.00;;;0.00;;
74810;SDS011;63340;48.404;-4.506;2022-10-13T12:03:37;0.00;;;0.00;;
74810;SDS011;63340;48.404;-4.506;2022-10-13T12:06:05;0.00;;;0.00;;
74810;SDS011;63340;48.404;-4.506;2022-10-13T12:08:43;0.00;;;0.00;;
74810;SDS011;63340;48.404;-4.506;2022-10-13T12:11:21;0.00;;;0.00;;
74810;SDS011;63340;48.404;-4.506;2022-10-13T12:13:49;0.00;;;0.00;;
74810;SDS011;63340;48.404;-4.506;2022-10-13T12:16:15;0.00;;;0.00;;
74810;SDS011;63340;48.404;-4.506;2022-10-13T12:18:41;0.00;;;0.00;;
74810;SDS011;63340;48.404;-4.506;2022-10-13T12:21:10;1.00;;;0.25;;
74810;SDS011;63340;48.404;-4.506;2022-10-13T12:23:38;1.00;;;1.00;;
74810;SDS011;63340;48.404;-4.506;2022-10-13T12:26:04;1.00;;;1.00;;
74810;SDS011;63340;48.404;-4.506;2022-10-13T12:31:24;1.00;;;1.00;;
74810;SDS011;63340;48.404;-4.506;2022-10-13T12:34:02;1.00;;;1.00;;
74810;SDS011;63340;48.404;-4.506;2022-10-13T12:36:29;1.00;;;1.00;;
74810;SDS011;63340;48.404;-4.506;2022-10-13T12:39:17;1.25;;;1.25;;
74810;SDS011;63340;48.404;-4.506;2022-10-13T12:41:43;0.75;;;0.75;;
74810;SDS011;63340;48.404;-4.506;2022-10-13T12:44:11;1.00;;;1.00;;
74810;SDS011;63340;48.404;-4.506;2022-10-13T12:46:59;2.00;;;2.00;;
74810;SDS011;63340;48.404;-4.506;2022-10-13T12:49:34;1.00;;;1.00;;
74810;SDS011;63340;48.404;-4.506;2022-10-13T12:52:10;2.00;;;1.25;;
74810;SDS011;63340;48.404;-4.506;2022-10-13T12:54:46;1.50;;;1.50;;
74810;SDS011;63340;48.404;-4.506;2022-10-13T12:57:17;3.00;;;2.50;;
74810;SDS011;63340;48.404;-4.506;2022-10-13T12:59:45;2.00;;;1.50;;
74810;SDS011;63340;48.404;-4.506;2022-10-13T13:02:19;1.00;;;1.00;;
74810;SDS011;63340;48.404;-4.506;2022-10-13T13:04:55;2.00;;;2.00;;
74810;SDS011;63340;48.404;-4.506;2022-10-13T13:07:24;3.00;;;3.00;;
74810;SDS011;63340;48.404;-4.506;2022-10-13T13:10:11;2.00;;;2.00;;
74810;SDS011;63340;48.404;-4.506;2022-10-13T13:12:40;2.00;;;2.00;;
74810;SDS011;63340;48.404;-4.506;2022-10-13T13:17:51;3.00;;;3.00;;
74810;SDS011;63340;48.404;-4.506;2022-10-13T13:20:28;1.00;;;1.00;;
74810;SDS011;63340;48.404;-4.506;2022-10-13T13:22:55;1.00;;;1.00;;
74810;SDS011;63340;48.404;-4.506;2022-10-13T13:25:22;2.00;;;2.00;;
74810;SDS011;63340;48.404;-4.506;2022-10-13T13:27:48;1.00;;;1.00;;
74810;SDS011;63340;48.404;-4.506;2022-10-13T13:30:14;2.00;;;2.00;;
74810;SDS011;63340;48.404;-4.506;2022-10-13T13:32:44;0.75;;;0.75;;
74810;SDS011;63340;48.404;-4.506;2022-10-13T13:35:09;1.00;;;1.00;;
74810;SDS011;63340;48.404;-4.506;2022-10-13T13:40:13;0.25;;;0.25;;
74810;SDS011;63340;48.404;-4.506;2022-10-13T13:42:41;0.00;;;0.00;;
74810;SDS011;63340;48.404;-4.506;2022-10-13T13:45:10;1.00;;;1.00;;
74810;SDS011;63340;48.404;-4.506;2022-10-13T13:47:36;1.00;;;1.00;;
74810;SDS011;63340;48.404;-4.506;2022-10-13T13:50:02;0.00;;;0.00;;
74810;SDS011;63340;48.404;-4.506;2022-10-13T13:52:27;0.00;;;0.00;;
74810;SDS011;63340;48.404;-4.506;2022-10-13T13:54:52;0.00;;;0.00;;
74810;SDS011;63340;48.404;-4.506;2022-10-13T13:57:22;0.00;;;0.00;;
74810;SDS011;63340;48.404;-4.506;2022-10-13T13:59:48;0.25;;;0.00;;
74810;SDS011;63340;48.404;-4.506;2022-10-13T14:02:15;0.00;;;0.00;;
74810;SDS011;63340;48.404;-4.506;2022-10-13T14:04:43;0.00;;;0.00;;
74810;SDS011;63340;48.404;-4.506;2022-10-13T14:07:09;0.00;;;0.00;;
74810;SDS011;63340;48.404;-4.506;2022-10-13T14:09:34;0.00;;;0.00;;
74810;SDS011;63340;48.404;-4.506;2022-10-13T14:12:00;0.00;;;0.00;;
74810;SDS011;63340;48.404;-4.506;2022-10-13T14:14:28;0.00;;;0.00;;
74810;SDS011;63340;48.404;-4.506;2022-10-13T14:16:55;0.00;;;0.00;;
74810;SDS011;63340;48.404;-4.506;2022-10-13T14:19:20;0.00;;;0.00;;
74810;SDS011;63340;48.404;-4.506;2022-10-13T14:21:46;0.00;;;0.00;;
74810;SDS011;63340;48.404;-4.506;2022-10-13T14:24:11;0.00;;;0.00;;
74810;SDS011;63340;48.404;-4.506;2022-10-13T14:26:37;0.00;;;0.00;;
74810;SDS011;63340;48.404;-4.506;2022-10-13T14:29:03;0.00;;;0.00;;
74810;SDS011;63340;48.404;-4.506;2022-10-13T14:31:28;1.00;;;1.00;;
74810;SDS011;63340;48.404;-4.506;2022-10-13T14:33:54;0.75;;;0.75;;
74810;SDS011;63340;48.404;-4.506;2022-10-13T14:36:20;2.00;;;1.50;;
74810;SDS011;63340;48.404;-4.506;2022-10-13T14:38:46;6.00;;;5.50;;
74810;SDS011;63340;48.404;-4.506;2022-10-13T14:41:11;10.25;;;8.25;;
74810;SDS011;63340;48.404;-4.506;2022-10-13T14:43:37;5.25;;;5.25;;
74810;SDS011;63340;48.404;-4.506;2022-10-13T14:46:03;5.75;;;5.75;;
74810;SDS011;63340;48.404;-4.506;2022-10-13T14:48:30;8.75;;;6.75;;
74810;SDS011;63340;48.404;-4.506;2022-10-13T14:50:56;2.00;;;2.00;;
74810;SDS011;63340;48.404;-4.506;2022-10-13T14:53:21;2.00;;;2.00;;
74810;SDS011;63340;48.404;-4.506;2022-10-13T14:55:50;1.00;;;1.00;;
74810;SDS011;63340;48.404;-4.506;2022-10-13T14:58:16;1.50;;;1.50;;
74810;SDS011;63340;48.404;-4.506;2022-10-13T15:00:44;2.00;;;1.00;;
74810;SDS011;63340;48.404;-4.506;2022-10-13T15:03:12;2.25;;;1.75;;
74810;SDS011;63340;48.404;-4.506;2022-10-13T15:05:38;1.00;;;1.00;;
74810;SDS011;63340;48.404;-4.506;2022-10-13T15:08:03;1.00;;;1.00;;
74810;SDS011;63340;48.404;-4.506;2022-10-13T15:10:29;1.25;;;1.25;;
74810;SDS011;63340;48.404;-4.506;2022-10-13T15:12:54;1.00;;;1.00;;
74810;SDS011;63340;48.404;-4.506;2022-10-13T15:15:20;1.75;;;1.75;;
74810;SDS011;63340;48.404;-4.506;2022-10-13T15:17:45;1.25;;;1.25;;
74810;SDS011;63340;48.404;-4.506;2022-10-13T15:20:10;1.00;;;1.00;;
74810;SDS011;63340;48.404;-4.506;2022-10-13T15:22:36;2.00;;;1.00;;
74810;SDS011;63340;48.404;-4.506;2022-10-13T15:25:08;1.00;;;1.00;;
74810;SDS011;63340;48.404;-4.506;2022-10-13T15:27:38;1.50;;;0.25;;
74810;SDS011;63340;48.404;-4.506;2022-10-13T15:30:05;1.00;;;1.00;;
74810;SDS011;63340;48.404;-4.506;2022-10-13T15:32:31;1.75;;;1.75;;
74810;SDS011;63340;48.404;-4.506;2022-10-13T15:34:57;1.00;;;1.00;;
74810;SDS011;63340;48.404;-4.506;2022-10-13T15:37:24;0.00;;;0.00;;
74810;SDS011;63340;48.404;-4.506;2022-10-13T15:39:52;1.00;;;1.00;;
74810;SDS011;63340;48.404;-4.506;2022-10-13T15:42:17;1.00;;;1.00;;
74810;SDS011;63340;48.404;-4.506;2022-10-13T15:44:43;1.00;;;1.00;;
74810;SDS011;63340;48.404;-4.506;2022-10-13T15:47:11;1.00;;;1.00;;
74810;SDS011;63340;48.404;-4.506;2022-10-13T15:49:36;1.00;;;1.00;;
74810;SDS011;63340;48.404;-4.506;2022-10-13T15:52:02;1.75;;;1.75;;
74810;SDS011;63340;48.404;-4.506;2022-10-13T15:54:27;1.00;;;0.75;;
74810;SDS011;63340;48.404;-4.506;2022-10-13T15:56:53;0.25;;;0.25;;
74810;SDS011;63340;48.404;-4.506;2022-10-13T15:59:18;1.00;;;1.00;;
74810;SDS011;63340;48.404;-4.506;2022-10-13T16:01:44;1.50;;;1.50;;
74810;SDS011;63340;48.404;-4.506;2022-10-13T16:04:09;1.25;;;1.25;;
74810;SDS011;63340;48.404;-4.506;2022-10-13T16:06:35;1.75;;;1.50;;
74810;SDS011;63340;48.404;-4.506;2022-10-13T16:09:01;2.75;;;2.00;;
74810;SDS011;63340;48.404;-4.506;2022-10-13T16:11:27;1.00;;;1.00;;
74810;SDS011;63340;48.404;-4.506;2022-10-13T16:13:52;2.75;;;1.25;;
74810;SDS011;63340;48.404;-4.506;2022-10-13T16:16:18;1.75;;;1.75;;